createdAt,value
2019-02-24T00:00:43.485Z,-7.52
2019-02-24T00:01:43.956Z,-7.52
2019-02-24T00:02:44.428Z,-7.50
2019-02-24T00:03:44.898Z,-7.51
2019-02-24T00:04:45.372Z,-7.49
2019-02-24T00:05:45.842Z,-7.50
2019-02-24T00:06:46.324Z,-7.48
2019-02-24T00:07:46.785Z,-7.48
2019-02-24T00:08:47.256Z,-7.46
2019-02-24T00:09:47.726Z,-7.46
2019-02-24T00:10:48.199Z,-7.46
2019-02-24T00:11:48.671Z,-7.45
2019-02-24T00:12:49.145Z,-7.44
2019-02-24T00:13:49.613Z,-7.44
2019-02-24T00:14:50.084Z,-7.42
2019-02-24T00:15:50.556Z,-7.42
2019-02-24T00:16:51.024Z,-7.41
2019-02-24T00:17:51.499Z,-7.40
2019-02-24T00:18:51.967Z,-7.39
2019-02-24T00:19:52.479Z,-7.38
2019-02-24T00:20:52.912Z,-7.39
2019-02-24T00:21:53.384Z,-7.37
2019-02-24T00:22:53.858Z,-7.37
2019-02-24T00:23:54.323Z,-7.36
2019-02-24T00:24:54.796Z,-7.35
2019-02-24T00:25:55.267Z,-7.34
2019-02-24T00:26:55.739Z,-7.33
2019-02-24T00:27:56.208Z,-7.32
2019-02-24T00:28:56.681Z,-7.30
2019-02-24T00:29:57.151Z,-7.30
2019-02-24T00:30:57.623Z,-7.30
2019-02-24T00:31:58.091Z,-7.28
2019-02-24T00:32:58.564Z,-7.26
2019-02-24T00:33:59.094Z,-7.26
2019-02-24T00:34:59.507Z,-7.27
2019-02-24T00:35:59.982Z,-7.26
2019-02-24T00:37:00.450Z,-7.24
2019-02-24T00:38:00.921Z,-7.24
2019-02-24T00:39:01.447Z,-7.24
2019-02-24T00:40:01.864Z,-7.22
2019-02-24T00:41:02.336Z,-7.20
2019-02-24T00:42:02.805Z,-7.18
2019-02-24T00:43:03.275Z,-7.18
2019-02-24T00:44:03.746Z,-7.16
2019-02-24T00:45:04.218Z,-7.16
2019-02-24T00:46:04.691Z,-7.15
2019-02-24T00:47:05.162Z,-7.15
2019-02-24T00:48:05.632Z,-7.12
2019-02-24T00:49:06.107Z,-7.11
2019-02-24T00:50:06.576Z,-7.11
2019-02-24T00:51:07.045Z,-7.09
2019-02-24T00:52:07.517Z,-7.09
2019-02-24T00:53:07.990Z,-7.08
2019-02-24T00:54:08.467Z,-7.06
2019-02-24T00:55:08.931Z,-7.06
2019-02-24T00:56:09.401Z,-7.05
2019-02-24T00:57:09.873Z,-7.04
2019-02-24T00:58:16.252Z,-7.02
2019-02-24T00:59:10.815Z,-7.00
2019-02-24T01:00:11.290Z,-7.00
2019-02-24T01:01:11.758Z,-6.98
2019-02-24T01:02:12.230Z,-6.98
2019-02-24T01:03:12.702Z,-6.98
2019-02-24T01:04:13.171Z,-6.96
2019-02-24T01:05:13.643Z,-6.96
2019-02-24T01:06:14.117Z,-6.94
2019-02-24T01:07:14.586Z,-6.94
2019-02-24T01:08:15.055Z,-6.94
2019-02-24T01:09:15.526Z,-6.92
2019-02-24T01:10:16.003Z,-6.90
2019-02-24T01:11:16.469Z,-6.90
2019-02-24T01:12:16.940Z,-6.88
2019-02-24T01:13:17.418Z,-6.88
2019-02-24T01:14:17.938Z,-6.86
2019-02-24T01:15:18.358Z,-6.86
2019-02-24T01:16:18.828Z,-6.86
2019-02-24T01:17:19.295Z,-6.84
2019-02-24T01:18:19.768Z,-6.84
2019-02-24T01:19:20.239Z,-6.82
2019-02-24T01:20:20.709Z,-6.82
2019-02-24T01:21:21.180Z,-6.81
2019-02-24T01:22:21.652Z,-6.82
2019-02-24T01:23:22.125Z,-6.80
2019-02-24T01:24:22.594Z,-6.80
2019-02-24T01:25:23.066Z,-6.78
2019-02-24T01:26:23.547Z,-6.77
2019-02-24T01:27:24.009Z,-6.76
2019-02-24T01:28:25.535Z,-6.76
2019-02-24T01:29:24.950Z,-6.75
2019-02-24T01:30:25.425Z,-6.74
2019-02-24T01:31:25.894Z,-6.75
2019-02-24T01:32:26.364Z,-6.74
2019-02-24T01:33:26.835Z,-6.72
2019-02-24T01:34:27.357Z,-6.73
2019-02-24T01:35:27.779Z,-6.69
2019-02-24T01:36:28.249Z,-6.70
2019-02-24T01:37:28.722Z,-6.71
2019-02-24T01:38:29.193Z,-6.70
2019-02-24T01:39:29.665Z,-6.68
2019-02-24T01:40:30.133Z,-6.68
2019-02-24T01:41:30.607Z,-6.68
2019-02-24T01:42:31.075Z,-6.66
2019-02-24T01:43:31.549Z,-6.68
2019-02-24T01:44:32.019Z,-6.66
2019-02-24T01:45:32.489Z,-6.66
2019-02-24T01:46:32.961Z,-6.66
2019-02-24T01:47:33.433Z,-6.66
2019-02-24T01:48:34.109Z,-6.64
2019-02-24T01:49:34.425Z,-6.63
2019-02-24T01:50:34.853Z,-6.62
2019-02-24T01:51:35.318Z,-6.62
2019-02-24T01:52:35.789Z,-6.63
2019-02-24T01:53:36.258Z,-6.60
2019-02-24T01:54:36.730Z,-6.61
2019-02-24T01:55:37.202Z,-6.61
2019-02-24T01:56:37.681Z,-6.61
2019-02-24T01:57:38.146Z,-6.60
2019-02-24T01:58:38.616Z,-6.60
2019-02-24T01:59:39.087Z,-6.58
2019-02-24T02:00:39.558Z,-6.58
2019-02-24T02:01:40.029Z,-6.58
2019-02-24T02:02:40.501Z,-6.57
2019-02-24T02:03:40.976Z,-6.56
2019-02-24T02:04:41.443Z,-6.56
2019-02-24T02:05:41.914Z,-6.55
2019-02-24T02:06:42.384Z,-6.56
2019-02-24T02:07:42.859Z,-6.56
2019-02-24T02:08:43.326Z,-6.56
2019-02-24T02:09:43.849Z,-6.55
2019-02-24T02:10:44.271Z,-6.53
2019-02-24T02:11:44.741Z,-6.54
2019-02-24T02:12:45.211Z,-6.53
2019-02-24T02:13:45.682Z,-6.54
2019-02-24T02:14:46.153Z,-6.52
2019-02-24T02:15:46.628Z,-6.50
2019-02-24T02:16:47.099Z,-6.50
2019-02-24T02:17:47.567Z,-6.50
2019-02-24T02:18:48.083Z,-6.50
2019-02-24T02:19:48.511Z,-6.50
2019-02-24T02:20:48.997Z,-6.50
2019-02-24T02:21:49.452Z,-6.48
2019-02-24T02:22:49.924Z,-6.48
2019-02-24T02:23:50.394Z,-6.49
2019-02-24T02:24:50.865Z,-6.48
2019-02-24T02:25:51.337Z,-6.46
2019-02-24T02:26:51.811Z,-6.46
2019-02-24T02:27:52.279Z,-6.46
2019-02-24T02:28:52.750Z,-6.46
2019-02-24T02:29:53.224Z,-6.45
2019-02-24T02:30:53.692Z,-6.44
2019-02-24T02:31:54.164Z,-6.44
2019-02-24T02:32:54.636Z,-6.43
2019-02-24T02:33:55.112Z,-6.43
2019-02-24T02:34:55.580Z,-6.42
2019-02-24T02:35:56.049Z,-6.42
2019-02-24T02:36:56.529Z,-6.42
2019-02-24T02:37:56.992Z,-6.42
2019-02-24T02:38:57.463Z,-6.40
2019-02-24T02:39:57.934Z,-6.40
2019-02-24T02:40:58.404Z,-6.39
2019-02-24T02:41:58.875Z,-6.38
2019-02-24T02:42:59.347Z,-6.38
2019-02-24T02:43:59.818Z,-6.38
2019-02-24T02:45:00.334Z,-6.38
2019-02-24T02:46:00.759Z,-6.36
2019-02-24T02:47:01.229Z,-6.37
2019-02-24T02:48:01.702Z,-6.36
2019-02-24T02:49:02.173Z,-6.36
2019-02-24T02:50:02.847Z,-6.36
2019-02-24T02:51:03.119Z,-6.35
2019-02-24T02:52:03.587Z,-6.34
2019-02-24T02:53:04.058Z,-6.34
2019-02-24T02:54:04.530Z,-6.32
2019-02-24T02:55:04.998Z,-6.33
2019-02-24T02:56:05.473Z,-6.32
2019-02-24T02:57:06.163Z,-6.34
2019-02-24T02:58:06.414Z,-6.32
2019-02-24T02:59:06.888Z,-6.31
2019-02-24T03:00:07.355Z,-6.30
2019-02-24T03:01:07.826Z,-6.30
2019-02-24T03:02:08.298Z,-6.29
2019-02-24T03:03:08.767Z,-6.28
2019-02-24T03:04:09.241Z,-6.28
2019-02-24T03:05:09.711Z,-6.27
2019-02-24T03:06:10.184Z,-6.26
2019-02-24T03:07:10.663Z,-6.25
2019-02-24T03:08:11.125Z,-6.24
2019-02-24T03:09:11.605Z,-6.24
2019-02-24T03:10:12.067Z,-6.24
2019-02-24T03:11:12.537Z,-6.23
2019-02-24T03:12:13.009Z,-6.22
2019-02-24T03:13:13.482Z,-6.23
2019-02-24T03:14:13.950Z,-6.22
2019-02-24T03:15:14.423Z,-6.20
2019-02-24T03:16:14.894Z,-6.20
2019-02-24T03:17:15.364Z,-6.20
2019-02-24T03:18:15.834Z,-6.18
2019-02-24T03:19:16.309Z,-6.18
2019-02-24T03:20:16.781Z,-6.19
2019-02-24T03:21:17.247Z,-6.18
2019-02-24T03:22:17.734Z,-6.18
2019-02-24T03:23:18.192Z,-6.18
2019-02-24T03:24:18.664Z,-6.16
2019-02-24T03:25:19.132Z,-6.16
2019-02-24T03:26:19.843Z,-6.16
2019-02-24T03:27:20.074Z,-6.14
2019-02-24T03:28:20.551Z,-6.16
2019-02-24T03:29:21.018Z,-6.16
2019-02-24T03:30:21.491Z,-6.14
2019-02-24T03:31:21.963Z,-6.14
2019-02-24T03:32:22.433Z,-6.14
2019-02-24T03:33:22.917Z,-6.12
2019-02-24T03:34:23.372Z,-6.13
2019-02-24T03:35:23.847Z,-6.12
2019-02-24T03:36:24.315Z,-6.12
2019-02-24T03:37:24.788Z,-6.12
2019-02-24T03:38:25.259Z,-6.12
2019-02-24T03:39:25.729Z,-6.10
2019-02-24T03:40:26.202Z,-6.12
2019-02-24T03:41:26.670Z,-6.10
2019-02-24T03:42:27.142Z,-6.10
2019-02-24T03:43:27.614Z,-6.08
2019-02-24T03:44:28.083Z,-6.10
2019-02-24T03:45:28.555Z,-6.08
2019-02-24T03:46:29.031Z,-6.10
2019-02-24T03:47:29.496Z,-6.08
2019-02-24T03:48:29.970Z,-6.08
2019-02-24T03:49:30.440Z,-6.08
2019-02-24T03:50:30.910Z,-6.07
2019-02-24T03:51:31.384Z,-6.08
2019-02-24T03:52:31.854Z,-6.08
2019-02-24T03:53:32.323Z,-6.06
2019-02-24T03:54:33.137Z,-6.06
2019-02-24T03:55:33.266Z,-6.06
2019-02-24T03:56:33.737Z,-6.05
2019-02-24T03:57:34.210Z,-6.06
2019-02-24T03:58:34.686Z,-6.06
2019-02-24T03:59:35.153Z,-6.06
2019-02-24T04:00:35.673Z,-6.04
2019-02-24T04:01:36.100Z,-6.06
2019-02-24T04:02:36.569Z,-6.06
2019-02-24T04:03:37.038Z,-6.06
2019-02-24T04:04:37.504Z,-6.05
2019-02-24T04:05:37.976Z,-6.06
2019-02-24T04:06:40.586Z,-6.04
2019-02-24T04:07:38.918Z,-6.04
2019-02-24T04:08:39.390Z,-6.04
2019-02-24T04:09:39.859Z,-6.04
2019-02-24T04:10:40.333Z,-6.04
2019-02-24T04:11:40.804Z,-6.04
2019-02-24T04:12:41.276Z,-6.03
2019-02-24T04:13:41.948Z,-6.04
2019-02-24T04:14:42.217Z,-6.05
2019-02-24T04:15:42.687Z,-6.04
2019-02-24T04:16:43.160Z,-6.04
2019-02-24T04:17:43.633Z,-6.04
2019-02-24T04:18:44.100Z,-6.04
2019-02-24T04:19:44.575Z,-6.04
2019-02-24T04:20:45.095Z,-6.03
2019-02-24T04:21:45.514Z,-6.03
2019-02-24T04:22:45.987Z,-6.04
2019-02-24T04:23:46.461Z,-6.02
2019-02-24T04:24:46.928Z,-6.02
2019-02-24T04:25:47.399Z,-6.02
2019-02-24T04:26:47.869Z,-6.04
2019-02-24T04:27:48.344Z,-6.02
2019-02-24T04:28:48.812Z,-6.04
2019-02-24T04:29:49.283Z,-6.04
2019-02-24T04:30:49.757Z,-6.03
2019-02-24T04:31:50.225Z,-6.04
2019-02-24T04:32:50.695Z,-6.04
2019-02-24T04:33:51.164Z,-6.03
2019-02-24T04:34:51.642Z,-6.02
2019-02-24T04:35:52.109Z,-6.04
2019-02-24T04:36:52.585Z,-6.04
2019-02-24T04:37:53.051Z,-6.04
2019-02-24T04:38:53.525Z,-6.04
2019-02-24T04:39:53.995Z,-6.04
2019-02-24T04:40:54.667Z,-6.02
2019-02-24T04:41:54.933Z,-6.06
2019-02-24T04:42:55.405Z,-6.04
2019-02-24T04:43:55.879Z,-6.04
2019-02-24T04:44:56.349Z,-6.04
2019-02-24T04:45:56.818Z,-6.04
2019-02-24T04:46:57.291Z,-6.06
2019-02-24T04:47:57.761Z,-6.04
2019-02-24T04:48:58.232Z,-6.05
2019-02-24T04:49:58.710Z,-6.04
2019-02-24T04:50:59.176Z,-6.04
2019-02-24T04:51:59.647Z,-6.04
2019-02-24T04:53:00.119Z,-6.03
2019-02-24T04:54:00.587Z,-6.02
2019-02-24T04:55:01.058Z,-6.06
2019-02-24T04:56:01.536Z,-6.04
2019-02-24T04:57:02.003Z,-6.04
2019-02-24T04:58:02.475Z,-6.03
2019-02-24T04:59:02.944Z,-6.04
2019-02-24T05:00:03.416Z,-6.04
2019-02-24T05:01:04.192Z,-6.04
2019-02-24T05:02:04.359Z,-6.04
2019-02-24T05:03:04.833Z,-6.04
2019-02-24T05:04:05.301Z,-6.06
2019-02-24T05:05:05.775Z,-6.04
2019-02-24T05:06:06.243Z,-6.04
2019-02-24T05:07:06.714Z,-6.04
2019-02-24T05:08:07.186Z,-6.04
2019-02-24T05:09:07.656Z,-6.03
2019-02-24T05:10:08.330Z,-6.06
2019-02-24T05:11:08.600Z,-6.04
2019-02-24T05:12:09.071Z,-6.04
2019-02-24T05:13:09.542Z,-6.03
2019-02-24T05:14:10.012Z,-6.05
2019-02-24T05:15:10.482Z,-6.04
2019-02-24T05:16:11.007Z,-6.04
2019-02-24T05:17:11.426Z,-6.03
2019-02-24T05:18:11.906Z,-6.04
2019-02-24T05:19:12.375Z,-6.04
2019-02-24T05:20:12.842Z,-6.03
2019-02-24T05:21:13.311Z,-6.03
2019-02-24T05:22:13.784Z,-6.04
2019-02-24T05:23:14.457Z,-6.04
2019-02-24T05:24:14.726Z,-6.04
2019-02-24T05:25:15.199Z,-6.04
2019-02-24T05:26:15.667Z,-6.03
2019-02-24T05:27:16.138Z,-6.05
2019-02-24T05:28:16.613Z,-6.02
2019-02-24T05:29:17.083Z,-6.04
2019-02-24T05:30:17.552Z,-6.06
2019-02-24T05:31:18.053Z,-6.04
2019-02-24T05:32:18.495Z,-6.04
2019-02-24T05:33:18.971Z,-6.02
2019-02-24T05:34:19.437Z,-6.04
2019-02-24T05:35:19.916Z,-6.04
2019-02-24T05:36:20.435Z,-6.06
2019-02-24T05:37:20.853Z,-6.04
2019-02-24T05:38:21.526Z,-6.04
2019-02-24T05:39:21.795Z,-6.05
2019-02-24T05:40:22.271Z,-6.04
2019-02-24T05:41:22.746Z,-6.04
2019-02-24T05:42:23.212Z,-6.05
2019-02-24T05:43:23.681Z,-6.04
2019-02-24T05:44:24.150Z,-6.04
2019-02-24T05:45:24.623Z,-6.04
2019-02-24T05:46:25.094Z,-6.05
2019-02-24T05:47:25.570Z,-6.06
2019-02-24T05:48:26.038Z,-6.04
2019-02-24T05:49:26.509Z,-6.05
2019-02-24T05:50:26.979Z,-6.04
2019-02-24T05:51:27.450Z,-6.06
2019-02-24T05:52:27.922Z,-6.04
2019-02-24T05:53:28.394Z,-6.06
2019-02-24T05:54:28.862Z,-6.06
2019-02-24T05:55:29.336Z,-6.04
2019-02-24T05:56:29.858Z,-6.06
2019-02-24T05:57:30.279Z,-6.06
2019-02-24T05:58:30.750Z,-6.04
2019-02-24T05:59:31.223Z,-6.06
2019-02-24T06:00:31.894Z,-6.07
2019-02-24T06:01:32.170Z,-6.07
2019-02-24T06:02:32.634Z,-6.06
2019-02-24T06:03:33.110Z,-6.06
2019-02-24T06:04:33.588Z,-6.07
2019-02-24T06:05:34.257Z,-6.07
2019-02-24T06:06:34.520Z,-6.06
2019-02-24T06:07:35.193Z,-6.06
2019-02-24T06:08:35.465Z,-6.06
2019-02-24T06:09:35.935Z,-6.06
2019-02-24T06:10:36.405Z,-6.06
2019-02-24T06:11:36.878Z,-6.06
2019-02-24T06:12:37.350Z,-6.07
2019-02-24T06:13:37.819Z,-6.07
2019-02-24T06:14:38.293Z,-6.07
2019-02-24T06:15:38.771Z,-6.08
2019-02-24T06:16:39.237Z,-6.07
2019-02-24T06:17:39.707Z,-6.06
2019-02-24T06:18:40.177Z,-6.06
2019-02-24T06:19:40.649Z,-6.06
2019-02-24T06:20:41.469Z,-6.06
2019-02-24T06:21:41.591Z,-6.07
2019-02-24T06:22:42.265Z,-6.06
2019-02-24T06:23:42.535Z,-6.06
2019-02-24T06:24:43.350Z,-6.06
2019-02-24T06:25:43.478Z,-6.06
2019-02-24T06:26:43.947Z,-6.08
2019-02-24T06:27:44.824Z,-6.06
2019-02-24T06:28:44.891Z,-6.07
2019-02-24T06:29:45.563Z,-6.08
2019-02-24T06:30:45.833Z,-6.06
2019-02-24T06:31:46.302Z,-6.08
2019-02-24T06:32:46.773Z,-6.06
2019-02-24T06:33:47.244Z,-6.08
2019-02-24T06:34:47.716Z,-6.07
2019-02-24T06:35:48.186Z,-6.06
2019-02-24T06:36:48.661Z,-6.07
2019-02-24T06:37:49.129Z,-6.08
2019-02-24T06:38:49.599Z,-6.06
2019-02-24T06:39:50.077Z,-6.08
2019-02-24T06:40:50.544Z,-6.08
2019-02-24T06:41:51.014Z,-6.06
2019-02-24T06:42:51.486Z,-6.08
2019-02-24T06:43:51.958Z,-6.07
2019-02-24T06:44:52.428Z,-6.06
2019-02-24T06:45:52.898Z,-6.06
2019-02-24T06:46:53.371Z,-6.06
2019-02-24T06:47:53.843Z,-6.04
2019-02-24T06:48:54.312Z,-6.05
2019-02-24T06:49:54.785Z,-6.05
2019-02-24T06:50:55.254Z,-6.06
2019-02-24T06:51:55.724Z,-6.04
2019-02-24T06:52:56.200Z,-6.04
2019-02-24T06:53:56.668Z,-6.06
2019-02-24T06:54:57.139Z,-6.06
2019-02-24T06:55:57.611Z,-6.03
2019-02-24T06:56:58.081Z,-6.04
2019-02-24T06:57:58.558Z,-6.04
2019-02-24T06:58:59.024Z,-6.04
2019-02-24T06:59:59.496Z,-6.03
2019-02-24T07:00:59.967Z,-6.04
2019-02-24T07:02:00.436Z,-6.04
2019-02-24T07:03:00.908Z,-6.04
2019-02-24T07:04:01.380Z,-6.03
2019-02-24T07:05:01.854Z,-6.04
2019-02-24T07:06:02.324Z,-6.02
2019-02-24T07:07:02.791Z,-6.02
2019-02-24T07:08:03.264Z,-6.02
2019-02-24T07:09:03.738Z,-6.01
2019-02-24T07:10:04.206Z,-6.03
2019-02-24T07:11:04.683Z,-6.02
2019-02-24T07:12:05.199Z,-6.02
2019-02-24T07:13:05.620Z,-6.02
2019-02-24T07:14:06.091Z,-6.02
2019-02-24T07:15:06.563Z,-6.02
2019-02-24T07:16:07.032Z,-6.01
2019-02-24T07:17:07.506Z,-6.00
2019-02-24T07:18:07.977Z,-6.02
2019-02-24T07:19:08.447Z,-6.00
2019-02-24T07:20:08.919Z,-6.01
2019-02-24T07:21:09.389Z,-6.00
2019-02-24T07:22:09.966Z,-5.99
2019-02-24T07:23:10.332Z,-6.00
2019-02-24T07:24:10.805Z,-5.98
2019-02-24T07:25:11.274Z,-5.98
2019-02-24T07:26:11.746Z,-5.98
2019-02-24T07:27:12.217Z,-5.98
2019-02-24T07:28:12.690Z,-5.98
2019-02-24T07:29:13.160Z,-5.97
2019-02-24T07:30:13.635Z,-5.98
2019-02-24T07:31:14.108Z,-5.98
2019-02-24T07:32:14.574Z,-5.97
2019-02-24T07:33:15.046Z,-5.96
2019-02-24T07:34:15.517Z,-5.96
2019-02-24T07:35:15.991Z,-5.96
2019-02-24T07:36:16.460Z,-5.96
2019-02-24T07:37:16.932Z,-5.95
2019-02-24T07:38:17.404Z,-5.94
2019-02-24T07:39:17.874Z,-5.94
2019-02-24T07:40:18.346Z,-5.94
2019-02-24T07:41:18.818Z,-5.94
2019-02-24T07:42:19.390Z,-5.92
2019-02-24T07:43:19.762Z,-5.94
2019-02-24T07:44:20.229Z,-5.92
2019-02-24T07:45:20.700Z,-5.92
2019-02-24T07:46:21.172Z,-5.92
2019-02-24T07:47:21.647Z,-5.92
2019-02-24T07:48:22.118Z,-5.92
2019-02-24T07:49:22.628Z,-5.90
2019-02-24T07:50:23.061Z,-5.90
2019-02-24T07:51:23.729Z,-5.92
2019-02-24T07:52:24.000Z,-5.92
2019-02-24T07:53:24.472Z,-5.91
2019-02-24T07:54:24.944Z,-5.90
2019-02-24T07:55:25.413Z,-5.90
2019-02-24T07:56:25.887Z,-5.90
2019-02-24T07:57:26.357Z,-5.89
2019-02-24T07:58:26.827Z,-5.90
2019-02-24T07:59:27.303Z,-5.88
2019-02-24T08:00:32.140Z,-5.90
2019-02-24T08:01:28.243Z,-5.86
2019-02-24T08:02:28.714Z,-5.88
2019-02-24T08:03:29.183Z,-5.88
2019-02-24T08:04:29.654Z,-5.88
2019-02-24T08:05:30.130Z,-5.86
2019-02-24T08:06:30.599Z,-5.88
2019-02-24T08:07:31.070Z,-5.86
2019-02-24T08:09:32.011Z,-5.86
2019-02-24T08:10:32.483Z,-5.84
2019-02-24T08:11:32.953Z,-5.86
2019-02-24T08:12:33.428Z,-5.87
2019-02-24T08:13:33.898Z,-5.86
2019-02-24T08:14:34.367Z,-5.86
2019-02-24T08:15:34.840Z,-5.84
2019-02-24T08:16:35.308Z,-5.84
2019-02-24T08:17:35.882Z,-5.82
2019-02-24T08:18:36.253Z,-5.84
2019-02-24T08:19:36.722Z,-5.84
2019-02-24T08:20:37.194Z,-5.84
2019-02-24T08:21:37.667Z,-5.84
2019-02-24T08:22:38.139Z,-5.85
2019-02-24T08:23:38.607Z,-5.84
2019-02-24T08:24:39.080Z,-5.84
2019-02-24T08:25:39.553Z,-5.84
2019-02-24T08:26:40.020Z,-5.84
2019-02-24T08:27:40.492Z,-5.84
2019-02-24T08:28:40.964Z,-5.82
2019-02-24T08:29:41.434Z,-5.84
2019-02-24T08:30:42.159Z,-5.84
2019-02-24T08:31:42.377Z,-5.83
2019-02-24T08:32:42.846Z,-5.82
2019-02-24T08:33:43.319Z,-5.84
2019-02-24T08:34:43.789Z,-5.82
2019-02-24T08:35:44.261Z,-5.82
2019-02-24T08:36:44.730Z,-5.83
2019-02-24T08:37:45.259Z,-5.82
2019-02-24T08:38:45.675Z,-5.82
2019-02-24T08:39:46.145Z,-5.82
2019-02-24T08:40:46.619Z,-5.83
2019-02-24T08:41:47.088Z,-5.82
2019-02-24T08:42:47.560Z,-5.82
2019-02-24T08:43:48.031Z,-5.80
2019-02-24T08:44:48.504Z,-5.81
2019-02-24T08:45:48.971Z,-5.80
2019-02-24T08:46:49.443Z,-5.80
2019-02-24T08:47:49.915Z,-5.80
2019-02-24T08:48:50.385Z,-5.78
2019-02-24T08:49:50.864Z,-5.79
2019-02-24T08:50:51.328Z,-5.79
2019-02-24T08:51:51.798Z,-5.78
2019-02-24T08:52:52.612Z,-5.80
2019-02-24T08:53:52.745Z,-5.80
2019-02-24T08:54:53.212Z,-5.78
2019-02-24T08:55:53.683Z,-5.78
2019-02-24T08:56:55.651Z,-5.78
2019-02-24T08:57:54.675Z,-5.78
2019-02-24T08:59:55.566Z,-5.76
2019-02-24T09:00:56.044Z,-5.76
2019-02-24T09:01:56.509Z,-5.76
2019-02-24T09:02:56.987Z,-5.76
2019-02-24T09:03:57.450Z,-5.76
2019-02-24T09:04:57.923Z,-5.74
2019-02-24T09:05:58.394Z,-5.74
2019-02-24T09:06:58.866Z,-5.74
2019-02-24T09:07:59.334Z,-5.74
2019-02-24T09:08:59.807Z,-5.74
2019-02-24T09:10:00.279Z,-5.74
2019-02-24T09:11:00.752Z,-5.72
2019-02-24T09:12:01.219Z,-5.72
2019-02-24T09:13:01.894Z,-5.70
2019-02-24T09:14:02.163Z,-5.71
2019-02-24T09:15:02.633Z,-5.71
2019-02-24T09:16:03.107Z,-5.72
2019-02-24T09:17:03.575Z,-5.70
2019-02-24T09:18:04.055Z,-5.69
2019-02-24T09:19:04.521Z,-5.71
2019-02-24T09:20:04.987Z,-5.69
2019-02-24T09:21:05.463Z,-5.69
2019-02-24T09:22:05.937Z,-5.68
2019-02-24T09:23:06.403Z,-5.68
2019-02-24T09:24:06.876Z,-5.68
2019-02-24T09:25:07.346Z,-5.68
2019-02-24T09:26:08.022Z,-5.68
2019-02-24T09:27:08.289Z,-5.68
2019-02-24T09:28:08.758Z,-5.68
2019-02-24T09:29:09.232Z,-5.66
2019-02-24T09:30:09.700Z,-5.66
2019-02-24T09:31:10.176Z,-5.64
2019-02-24T09:32:10.845Z,-5.65
2019-02-24T09:33:11.163Z,-5.65
2019-02-24T09:34:11.586Z,-5.65
2019-02-24T09:35:12.257Z,-5.62
2019-02-24T09:36:12.526Z,-5.63
2019-02-24T09:37:12.998Z,-5.63
2019-02-24T09:38:13.469Z,-5.62
2019-02-24T09:39:13.942Z,-5.62
2019-02-24T09:40:14.410Z,-5.60
2019-02-24T09:41:14.884Z,-5.61
2019-02-24T09:42:15.356Z,-5.62
2019-02-24T09:43:15.825Z,-5.59
2019-02-24T09:44:16.323Z,-5.61
2019-02-24T09:45:16.766Z,-5.58
2019-02-24T09:46:17.241Z,-5.60
2019-02-24T09:47:17.912Z,-5.58
2019-02-24T09:49:18.652Z,-5.57
2019-02-24T09:50:19.325Z,-5.58
2019-02-24T09:51:19.595Z,-5.55
2019-02-24T09:52:20.065Z,-5.56
2019-02-24T09:53:20.586Z,-5.56
2019-02-24T09:54:21.008Z,-5.54
2019-02-24T09:55:21.481Z,-5.54
2019-02-24T09:56:21.949Z,-5.54
2019-02-24T09:57:22.421Z,-5.54
2019-02-24T09:58:22.894Z,-5.52
2019-02-24T09:59:23.366Z,-5.51
2019-02-24T10:00:23.838Z,-5.52
2019-02-24T10:01:24.311Z,-5.51
2019-02-24T10:02:24.777Z,-5.50
2019-02-24T10:03:25.250Z,-5.49
2019-02-24T10:04:25.718Z,-5.51
2019-02-24T10:05:26.194Z,-5.50
2019-02-24T10:06:26.664Z,-5.50
2019-02-24T10:07:27.133Z,-5.48
2019-02-24T10:08:27.655Z,-5.48
2019-02-24T10:09:28.076Z,-5.48
2019-02-24T10:10:28.547Z,-5.50
2019-02-24T10:11:29.018Z,-5.46
2019-02-24T10:12:29.693Z,-5.50
2019-02-24T10:13:30.015Z,-5.45
2019-02-24T10:14:30.433Z,-5.46
2019-02-24T10:15:30.905Z,-5.44
2019-02-24T10:16:31.374Z,-5.46
2019-02-24T10:17:31.848Z,-5.43
2019-02-24T10:18:32.316Z,-5.44
2019-02-24T10:19:32.793Z,-5.45
2019-02-24T10:20:33.258Z,-5.44
2019-02-24T10:21:33.732Z,-5.44
2019-02-24T10:22:34.203Z,-5.42
2019-02-24T10:23:34.675Z,-5.44
2019-02-24T10:25:35.616Z,-5.43
2019-02-24T10:26:36.088Z,-5.44
2019-02-24T10:27:36.557Z,-5.40
2019-02-24T10:28:37.081Z,-5.42
2019-02-24T10:29:37.500Z,-5.41
2019-02-24T10:30:37.974Z,-5.40
2019-02-24T10:31:38.444Z,-5.40
2019-02-24T10:32:38.917Z,-5.40
2019-02-24T10:33:39.434Z,-5.39
2019-02-24T10:34:39.856Z,-5.39
2019-02-24T10:35:40.329Z,-5.40
2019-02-24T10:36:40.798Z,-5.40
2019-02-24T10:37:41.269Z,-5.38
2019-02-24T10:38:41.743Z,-5.38
2019-02-24T10:39:42.213Z,-5.38
2019-02-24T10:40:42.683Z,-5.38
2019-02-24T10:41:43.153Z,-5.35
2019-02-24T10:42:43.626Z,-5.36
2019-02-24T10:43:44.097Z,-5.36
2019-02-24T10:44:44.568Z,-5.35
2019-02-24T10:45:45.142Z,-5.36
2019-02-24T10:46:45.513Z,-5.34
2019-02-24T10:47:45.981Z,-5.32
2019-02-24T10:48:46.662Z,-5.35
2019-02-24T10:49:46.923Z,-5.34
2019-02-24T10:50:47.392Z,-5.32
2019-02-24T10:51:47.869Z,-5.31
2019-02-24T10:52:48.335Z,-5.30
2019-02-24T10:53:48.805Z,-5.30
2019-02-24T10:54:49.278Z,-5.30
2019-02-24T10:55:49.749Z,-5.30
2019-02-24T10:56:50.219Z,-5.28
2019-02-24T10:57:50.690Z,-5.28
2019-02-24T10:58:51.163Z,-5.25
2019-02-24T10:59:51.635Z,-5.30
2019-02-24T11:00:52.103Z,-5.25
2019-02-24T11:02:53.045Z,-5.25
2019-02-24T11:03:53.519Z,-5.23
2019-02-24T11:04:53.989Z,-5.24
2019-02-24T11:05:54.458Z,-5.24
2019-02-24T11:06:54.931Z,-5.22
2019-02-24T11:07:55.400Z,-5.21
2019-02-24T11:08:55.872Z,-5.18
2019-02-24T11:09:56.343Z,-5.20
2019-02-24T11:10:56.813Z,-5.20
2019-02-24T11:11:57.286Z,-5.20
2019-02-24T11:12:57.756Z,-5.18
2019-02-24T11:13:58.225Z,-5.18
2019-02-24T11:14:58.699Z,-5.18
2019-02-24T11:15:59.170Z,-5.18
2019-02-24T11:16:59.638Z,-5.17
2019-02-24T11:18:01.516Z,-5.16
2019-02-24T11:20:01.256Z,-5.16
2019-02-24T11:21:01.727Z,-5.13
2019-02-24T11:22:02.022Z,-5.14
2019-02-24T11:23:02.466Z,-5.14
2019-02-24T11:24:02.986Z,-5.10
2019-02-24T11:25:03.409Z,-5.13
2019-02-24T11:26:03.877Z,-5.12
2019-02-24T11:27:04.363Z,-5.10
2019-02-24T11:28:04.819Z,-5.10
2019-02-24T11:29:05.291Z,-5.10
2019-02-24T11:30:05.761Z,-5.09
2019-02-24T11:31:06.235Z,-5.09
2019-02-24T11:32:06.704Z,-5.06
2019-02-24T11:33:07.174Z,-5.06
2019-02-24T11:34:07.646Z,-5.10
2019-02-24T11:35:08.117Z,-5.04
2019-02-24T11:36:08.626Z,-5.04
2019-02-24T11:37:09.400Z,-5.04
2019-02-24T11:38:09.532Z,-5.02
2019-02-24T11:39:10.000Z,-5.00
2019-02-24T11:40:10.470Z,-4.98
2019-02-24T11:41:10.941Z,-5.00
2019-02-24T11:42:11.413Z,-4.98
2019-02-24T11:44:12.405Z,-4.97
2019-02-24T11:45:12.825Z,-4.98
2019-02-24T11:46:13.304Z,-4.96
2019-02-24T11:47:13.770Z,-4.96
2019-02-24T11:48:14.239Z,-4.94
2019-02-24T11:49:14.759Z,-4.95
2019-02-24T11:50:15.182Z,-4.94
2019-02-24T11:51:15.668Z,-4.91
2019-02-24T11:52:16.123Z,-4.90
2019-02-24T11:54:17.068Z,-4.92
2019-02-24T11:55:17.575Z,-4.88
2019-02-24T11:56:19.693Z,-4.90
2019-02-24T11:57:18.476Z,-4.88
2019-02-24T11:58:18.948Z,-4.86
2019-02-24T11:59:19.418Z,-4.85
2019-02-24T12:00:19.958Z,-4.84
2019-02-24T12:01:20.370Z,-4.84
2019-02-24T12:02:20.831Z,-4.80
2019-02-24T12:03:21.304Z,-4.81
2019-02-24T12:04:21.827Z,-4.82
2019-02-24T12:05:22.244Z,-4.82
2019-02-24T12:06:22.716Z,-4.82
2019-02-24T12:07:23.188Z,-4.79
2019-02-24T12:08:23.656Z,-4.78
2019-02-24T12:09:24.128Z,-4.78
2019-02-24T12:10:24.603Z,-4.78
2019-02-24T12:11:25.272Z,-4.76
2019-02-24T12:12:25.548Z,-4.76
2019-02-24T12:13:26.213Z,-4.76
2019-02-24T12:14:26.483Z,-4.75
2019-02-24T12:15:26.954Z,-4.74
2019-02-24T12:16:27.428Z,-4.74
2019-02-24T12:17:27.902Z,-4.71
2019-02-24T12:19:28.890Z,-4.74
2019-02-24T12:20:29.310Z,-4.72
2019-02-24T12:21:29.781Z,-4.71
2019-02-24T12:22:30.250Z,-4.70
2019-02-24T12:23:30.726Z,-4.70
2019-02-24T12:24:31.268Z,-4.68
2019-02-24T12:25:31.664Z,-4.68
2019-02-24T12:26:32.337Z,-4.67
2019-02-24T12:27:32.607Z,-4.65
2019-02-24T12:28:33.078Z,-4.65
2019-02-24T12:29:33.748Z,-4.66
2019-02-24T12:30:34.025Z,-4.66
2019-02-24T12:31:34.490Z,-4.64
2019-02-24T12:32:34.964Z,-4.62
2019-02-24T12:33:35.432Z,-4.62
2019-02-24T12:34:35.906Z,-4.61
2019-02-24T12:35:36.388Z,-4.60
2019-02-24T12:36:36.848Z,-4.60
2019-02-24T12:37:37.318Z,-4.60
2019-02-24T12:38:37.788Z,-4.58
2019-02-24T12:39:38.314Z,-4.58
2019-02-24T12:40:38.729Z,-4.58
2019-02-24T12:41:39.200Z,-4.57
2019-02-24T12:42:39.670Z,-4.58
2019-02-24T12:43:40.141Z,-4.56
2019-02-24T12:44:40.618Z,-4.56
2019-02-24T12:45:41.085Z,-4.56
2019-02-24T12:46:41.554Z,-4.56
2019-02-24T12:47:42.026Z,-4.55
2019-02-24T12:49:42.970Z,-4.53
2019-02-24T12:50:43.440Z,-4.54
2019-02-24T12:51:43.909Z,-4.54
2019-02-24T12:52:44.380Z,-4.54
2019-02-24T12:53:44.852Z,-4.52
2019-02-24T12:54:45.322Z,-4.50
2019-02-24T12:55:45.794Z,-4.51
2019-02-24T12:56:46.273Z,-4.51
2019-02-24T12:57:46.734Z,-4.50
2019-02-24T12:58:47.211Z,-4.51
2019-02-24T12:59:47.730Z,-4.50
2019-02-24T13:00:48.149Z,-4.50
2019-02-24T13:01:48.620Z,-4.50
2019-02-24T13:02:49.096Z,-4.48
2019-02-24T13:03:49.563Z,-4.50
2019-02-24T13:04:50.087Z,-4.48
2019-02-24T13:05:50.507Z,-4.48
2019-02-24T13:06:50.976Z,-4.48
2019-02-24T13:07:51.447Z,-4.49
2019-02-24T13:08:51.920Z,-4.48